Time;durP1;ratioP1;P1;durP2;ratioP2;P2;SDS_P1;SDS_P2;PMS_P1;PMS_P2;Temp;Humidity;BMP_temperature;BMP_pressure;BME280_temperature;BME280_humidity;BME280_pressure;Samples;Min_cycle;Max_cycle;Signal;HPM_P1;HPM_P2
2020/10/14 00:00:48;;;;;;;13.65;8.699999;;;;;;;4.05;98.22656;94669.49;;;;
2020/10/14 00:01:48;;;;;;;13.65;8.699999;;;;;;;4.05;98.22656;94669.49;;;;
2020/10/14 00:02:49;;;;;;;13.65;8.699999;;;;;;;4.05;98.22656;94669.49;;;;
2020/10/14 00:03:49;;;;;;;13.65;8.699999;;;;;;;4.05;98.22656;94669.49;;;;
2020/10/14 00:04:49;;;;;;;13.65;8.699999;;;;;;;4.05;98.22656;94669.49;;;;
2020/10/14 00:05:58;;;;;;;13.65;8.699999;;;;;;;4.05;98.22656;94669.49;;;;
2020/10/14 00:06:59;;;;;;;13.65;8.699999;;;;;;;4.05;98.22656;94669.49;;;;
2020/10/14 00:07:59;;;;;;;14.85;9.45;;;;;;;4.04;98.48535;94672.38;;;;
2020/10/14 00:09:01;;;;;;;14.85;9.45;;;;;;;4.04;98.48535;94672.38;;;;
2020/10/14 00:10:02;;;;;;;14.85;9.45;;;;;;;4.04;98.48535;94672.38;;;;
2020/10/14 00:11:04;;;;;;;14.85;9.45;;;;;;;4.04;98.48535;94672.38;;;;
2020/10/14 00:12:04;;;;;;;14.85;9.45;;;;;;;4.04;98.48535;94672.38;;;;
2020/10/14 00:13:05;;;;;;;14.85;9.45;;;;;;;4.04;98.48535;94672.38;;;;
2020/10/14 00:14:08;;;;;;;14.85;9.45;;;;;;;4.04;98.48535;94672.38;;;;
2020/10/14 00:15:09;;;;;;;14.85;9.45;;;;;;;4.04;98.48535;94672.38;;;;
2020/10/14 00:16:15;;;;;;;14.85;9.45;;;;;;;4.04;98.48535;94672.38;;;;
2020/10/14 00:17:16;;;;;;;14.85;9.45;;;;;;;4.04;98.48535;94672.38;;;;
2020/10/14 00:18:17;;;;;;;14.65;9.950001;;;;;;;3.97;98.58594;94668.41;;;;
2020/10/14 00:19:17;;;;;;;14.65;9.950001;;;;;;;3.97;98.58594;94668.41;;;;
2020/10/14 00:20:18;;;;;;;14.65;9.950001;;;;;;;3.97;98.58594;94668.41;;;;
2020/10/14 00:21:21;;;;;;;14.65;9.950001;;;;;;;3.97;98.58594;94668.41;;;;
2020/10/14 00:22:22;;;;;;;14.65;9.950001;;;;;;;3.97;98.58594;94668.41;;;;
2020/10/14 00:23:22;;;;;;;14.65;9.950001;;;;;;;3.97;98.58594;94668.41;;;;
2020/10/14 00:24:23;;;;;;;14.65;9.950001;;;;;;;3.97;98.58594;94668.41;;;;
2020/10/14 00:25:24;;;;;;;14.65;9.950001;;;;;;;3.97;98.58594;94668.41;;;;
2020/10/14 00:26:25;;;;;;;14.65;9.950001;;;;;;;3.97;98.58594;94668.41;;;;
2020/10/14 00:27:25;;;;;;;14.65;9.950001;;;;;;;3.97;98.58594;94668.41;;;;
2020/10/14 00:28:26;;;;;;;14.65;9.950001;;;;;;;3.97;98.58594;94668.41;;;;
2020/10/14 00:29:26;;;;;;;15.05;9.499999;;;;;;;3.96;98.81348;94682.78;;;;
2020/10/14 00:30:27;;;;;;;15.05;9.499999;;;;;;;3.96;98.81348;94682.78;;;;
2020/10/14 00:31:30;;;;;;;15.05;9.499999;;;;;;;3.96;98.81348;94682.78;;;;
2020/10/14 00:32:31;;;;;;;15.05;9.499999;;;;;;;3.96;98.81348;94682.78;;;;
2020/10/14 00:33:31;;;;;;;15.05;9.499999;;;;;;;3.96;98.81348;94682.78;;;;
2020/10/14 00:34:32;;;;;;;15.05;9.499999;;;;;;;3.96;98.81348;94682.78;;;;
2020/10/14 00:35:34;;;;;;;15.05;9.499999;;;;;;;3.96;98.81348;94682.78;;;;
2020/10/14 00:36:34;;;;;;;15.05;9.499999;;;;;;;3.96;98.81348;94682.78;;;;
2020/10/14 00:37:35;;;;;;;15.05;9.499999;;;;;;;3.96;98.81348;94682.78;;;;
2020/10/14 00:38:35;;;;;;;15.05;9.499999;;;;;;;3.96;98.81348;94682.78;;;;
2020/10/14 00:39:36;;;;;;;15.05;9.199999;;;;;;;3.87;98.89648;94679.61;;;;
2020/10/14 00:40:37;;;;;;;15.05;9.199999;;;;;;;3.87;98.89648;94679.61;;;;
2020/10/14 00:41:56;;;;;;;15.05;9.199999;;;;;;;3.87;98.89648;94679.61;;;;
2020/10/14 00:42:59;;;;;;;15.05;9.199999;;;;;;;3.87;98.89648;94679.61;;;;
2020/10/14 00:44:00;;;;;;;15.05;9.199999;;;;;;;3.87;98.89648;94679.61;;;;
2020/10/14 00:45:00;;;;;;;15.05;9.199999;;;;;;;3.87;98.89648;94679.61;;;;
2020/10/14 00:46:01;;;;;;;15.05;9.199999;;;;;;;3.87;98.89648;94679.61;;;;
2020/10/14 00:47:02;;;;;;;15.05;9.199999;;;;;;;3.87;98.89648;94679.61;;;;
2020/10/14 00:48:06;;;;;;;15.05;9.199999;;;;;;;3.87;98.89648;94679.61;;;;
2020/10/14 00:49:08;;;;;;;15.05;9.199999;;;;;;;3.87;98.89648;94679.61;;;;
2020/10/14 00:50:08;;;;;;;16.2;10.25;;;;;;;3.86;99.1582;94686.41;;;;
2020/10/14 00:51:09;;;;;;;16.2;10.25;;;;;;;3.86;99.1582;94686.41;;;;
2020/10/14 00:52:09;;;;;;;16.2;10.25;;;;;;;3.86;99.1582;94686.41;;;;
2020/10/14 00:53:13;;;;;;;16.2;10.25;;;;;;;3.86;99.1582;94686.41;;;;
2020/10/14 00:54:13;;;;;;;16.2;10.25;;;;;;;3.86;99.1582;94686.41;;;;
2020/10/14 00:55:14;;;;;;;16.2;10.25;;;;;;;3.86;99.1582;94686.41;;;;
2020/10/14 00:56:14;;;;;;;16.2;10.25;;;;;;;3.86;99.1582;94686.41;;;;
2020/10/14 00:57:15;;;;;;;16.2;10.25;;;;;;;3.86;99.1582;94686.41;;;;
2020/10/14 00:58:19;;;;;;;16.2;10.25;;;;;;;3.86;99.1582;94686.41;;;;
2020/10/14 00:59:19;;;;;;;16.2;10.25;;;;;;;3.86;99.1582;94686.41;;;;
2020/10/14 01:00:20;;;;;;;16.2;10.25;;;;;;;3.86;99.1582;94686.41;;;;
2020/10/14 01:01:24;;;;;;;14.8;9.349998;;;;;;;3.81;99.2998;94677.39;;;;
2020/10/14 01:02:24;;;;;;;14.8;9.349998;;;;;;;3.81;99.2998;94677.39;;;;
2020/10/14 01:03:25;;;;;;;14.8;9.349998;;;;;;;3.81;99.2998;94677.39;;;;
2020/10/14 01:04:26;;;;;;;14.8;9.349998;;;;;;;3.81;99.2998;94677.39;;;;
2020/10/14 01:05:27;;;;;;;14.8;9.349998;;;;;;;3.81;99.2998;94677.39;;;;
2020/10/14 01:06:27;;;;;;;14.8;9.349998;;;;;;;3.81;99.2998;94677.39;;;;
2020/10/14 01:07:28;;;;;;;14.8;9.349998;;;;;;;3.81;99.2998;94677.39;;;;
2020/10/14 01:08:29;;;;;;;14.8;9.349998;;;;;;;3.81;99.2998;94677.39;;;;
2020/10/14 01:09:29;;;;;;;14.8;9.349998;;;;;;;3.81;99.2998;94677.39;;;;
2020/10/14 01:10:33;;;;;;;14.8;9.349998;;;;;;;3.81;99.2998;94677.39;;;;
2020/10/14 01:11:35;;;;;;;14.5;9.299999;;;;;;;3.82;99.54492;94678.5;;;;
2020/10/14 01:12:36;;;;;;;14.5;9.299999;;;;;;;3.82;99.54492;94678.5;;;;
2020/10/14 01:13:37;;;;;;;14.5;9.299999;;;;;;;3.82;99.54492;94678.5;;;;
2020/10/14 01:14:38;;;;;;;14.5;9.299999;;;;;;;3.82;99.54492;94678.5;;;;
2020/10/14 01:15:38;;;;;;;14.5;9.299999;;;;;;;3.82;99.54492;94678.5;;;;
2020/10/14 01:16:39;;;;;;;14.5;9.299999;;;;;;;3.82;99.54492;94678.5;;;;
2020/10/14 01:17:39;;;;;;;14.5;9.299999;;;;;;;3.82;99.54492;94678.5;;;;
2020/10/14 01:18:40;;;;;;;14.5;9.299999;;;;;;;3.82;99.54492;94678.5;;;;
2020/10/14 01:19:41;;;;;;;14.5;9.299999;;;;;;;3.82;99.54492;94678.5;;;;
2020/10/14 01:20:42;;;;;;;14.5;9.299999;;;;;;;3.82;99.54492;94678.5;;;;
2020/10/14 01:21:43;;;;;;;14.5;9.299999;;;;;;;3.82;99.54492;94678.5;;;;
2020/10/14 01:22:43;;;;;;;16.1;9.75;;;;;;;3.77;99.53125;94658.8;;;;
2020/10/14 01:23:44;;;;;;;16.1;9.75;;;;;;;3.77;99.53125;94658.8;;;;
2020/10/14 01:24:45;;;;;;;16.1;9.75;;;;;;;3.77;99.53125;94658.8;;;;
2020/10/14 01:25:46;;;;;;;16.1;9.75;;;;;;;3.77;99.53125;94658.8;;;;
2020/10/14 01:26:47;;;;;;;16.1;9.75;;;;;;;3.77;99.53125;94658.8;;;;
2020/10/14 01:27:47;;;;;;;16.1;9.75;;;;;;;3.77;99.53125;94658.8;;;;
2020/10/14 01:28:48;;;;;;;16.1;9.75;;;;;;;3.77;99.53125;94658.8;;;;
2020/10/14 01:29:49;;;;;;;16.1;9.75;;;;;;;3.77;99.53125;94658.8;;;;
2020/10/14 01:30:49;;;;;;;16.1;9.75;;;;;;;3.77;99.53125;94658.8;;;;
2020/10/14 01:31:51;;;;;;;16.1;9.75;;;;;;;3.77;99.53125;94658.8;;;;
2020/10/14 01:32:51;;;;;;;15.85;9.950001;;;;;;;3.8;99.89551;94659.61;;;;
2020/10/14 01:33:53;;;;;;;15.85;9.950001;;;;;;;3.8;99.89551;94659.61;;;;
2020/10/14 01:34:54;;;;;;;15.85;9.950001;;;;;;;3.8;99.89551;94659.61;;;;
2020/10/14 01:35:55;;;;;;;15.85;9.950001;;;;;;;3.8;99.89551;94659.61;;;;
2020/10/14 01:36:56;;;;;;;15.85;9.950001;;;;;;;3.8;99.89551;94659.61;;;;
2020/10/14 01:37:56;;;;;;;15.85;9.950001;;;;;;;3.8;99.89551;94659.61;;;;
2020/10/14 01:38:58;;;;;;;15.85;9.950001;;;;;;;3.8;99.89551;94659.61;;;;
2020/10/14 01:39:59;;;;;;;15.85;9.950001;;;;;;;3.8;99.89551;94659.61;;;;
2020/10/14 01:40:59;;;;;;;15.85;9.950001;;;;;;;3.8;99.89551;94659.61;;;;
2020/10/14 01:42:03;;;;;;;15.85;9.950001;;;;;;;3.8;99.89551;94659.61;;;;
2020/10/14 01:43:08;;;;;;;15.85;9.950001;;;;;;;3.8;99.89551;94659.61;;;;
2020/10/14 01:44:09;;;;;;;15.85;10.2;;;;;;;3.78;99.93262;94660.33;;;;
2020/10/14 01:45:09;;;;;;;15.85;10.2;;;;;;;3.78;99.93262;94660.33;;;;
2020/10/14 01:46:19;;;;;;;15.85;10.2;;;;;;;3.78;99.93262;94660.33;;;;
2020/10/14 01:47:19;;;;;;;15.85;10.2;;;;;;;3.78;99.93262;94660.33;;;;
2020/10/14 01:48:20;;;;;;;15.85;10.2;;;;;;;3.78;99.93262;94660.33;;;;
2020/10/14 01:49:21;;;;;;;15.85;10.2;;;;;;;3.78;99.93262;94660.33;;;;
2020/10/14 01:50:22;;;;;;;15.85;10.2;;;;;;;3.78;99.93262;94660.33;;;;
2020/10/14 01:51:23;;;;;;;15.85;10.2;;;;;;;3.78;99.93262;94660.33;;;;
2020/10/14 01:52:23;;;;;;;15.85;10.2;;;;;;;3.78;99.93262;94660.33;;;;
2020/10/14 01:53:24;;;;;;;15.85;10.2;;;;;;;3.78;99.93262;94660.33;;;;
2020/10/14 01:54:24;;;;;;;14.55;9.450001;;;;;;;3.79;100;94664.67;;;;
2020/10/14 01:55:25;;;;;;;14.55;9.450001;;;;;;;3.79;100;94664.67;;;;
2020/10/14 01:56:28;;;;;;;14.55;9.450001;;;;;;;3.79;100;94664.67;;;;
2020/10/14 01:57:28;;;;;;;14.55;9.450001;;;;;;;3.79;100;94664.67;;;;
2020/10/14 01:58:29;;;;;;;14.55;9.450001;;;;;;;3.79;100;94664.67;;;;
2020/10/14 01:59:29;;;;;;;14.55;9.450001;;;;;;;3.79;100;94664.67;;;;
2020/10/14 02:00:30;;;;;;;14.55;9.450001;;;;;;;3.79;100;94664.67;;;;
2020/10/14 02:01:33;;;;;;;14.55;9.450001;;;;;;;3.79;100;94664.67;;;;
2020/10/14 02:02:34;;;;;;;14.55;9.450001;;;;;;;3.79;100;94664.67;;;;
2020/10/14 02:03:34;;;;;;;14.55;9.450001;;;;;;;3.79;100;94664.67;;;;
2020/10/14 02:04:35;;;;;;;14.25;8.75;;;;;;;3.69;100;94672.69;;;;
2020/10/14 02:05:36;;;;;;;14.25;8.75;;;;;;;3.69;100;94672.69;;;;
2020/10/14 02:06:36;;;;;;;14.25;8.75;;;;;;;3.69;100;94672.69;;;;
2020/10/14 02:07:37;;;;;;;14.25;8.75;;;;;;;3.69;100;94672.69;;;;
2020/10/14 02:08:37;;;;;;;14.25;8.75;;;;;;;3.69;100;94672.69;;;;
2020/10/14 02:09:38;;;;;;;14.25;8.75;;;;;;;3.69;100;94672.69;;;;
2020/10/14 02:10:39;;;;;;;14.25;8.75;;;;;;;3.69;100;94672.69;;;;
2020/10/14 02:11:42;;;;;;;14.25;8.75;;;;;;;3.69;100;94672.69;;;;
2020/10/14 02:12:42;;;;;;;14.25;8.75;;;;;;;3.69;100;94672.69;;;;
2020/10/14 02:13:43;;;;;;;14.25;8.75;;;;;;;3.69;100;94672.69;;;;
2020/10/14 02:14:43;;;;;;;14.25;8.75;;;;;;;3.69;100;94672.69;;;;
2020/10/14 02:15:44;;;;;;;15.55;9.199999;;;;;;;3.62;100;94659.04;;;;
2020/10/14 02:16:44;;;;;;;15.55;9.199999;;;;;;;3.62;100;94659.04;;;;
2020/10/14 02:17:45;;;;;;;15.55;9.199999;;;;;;;3.62;100;94659.04;;;;
2020/10/14 02:18:46;;;;;;;15.55;9.199999;;;;;;;3.62;100;94659.04;;;;
2020/10/14 02:19:46;;;;;;;15.55;9.199999;;;;;;;3.62;100;94659.04;;;;
2020/10/14 02:20:47;;;;;;;15.55;9.199999;;;;;;;3.62;100;94659.04;;;;
2020/10/14 02:21:47;;;;;;;15.55;9.199999;;;;;;;3.62;100;94659.04;;;;
2020/10/14 02:22:48;;;;;;;15.55;9.199999;;;;;;;3.62;100;94659.04;;;;
2020/10/14 02:23:50;;;;;;;15.55;9.199999;;;;;;;3.62;100;94659.04;;;;
2020/10/14 02:24:51;;;;;;;15.55;9.199999;;;;;;;3.62;100;94659.04;;;;
2020/10/14 02:25:51;;;;;;;13.6;8.550001;;;;;;;3.42;100;94661.75;;;;
2020/10/14 02:26:52;;;;;;;13.6;8.550001;;;;;;;3.42;100;94661.75;;;;
2020/10/14 02:27:53;;;;;;;13.6;8.550001;;;;;;;3.42;100;94661.75;;;;
2020/10/14 02:28:56;;;;;;;13.6;8.550001;;;;;;;3.42;100;94661.75;;;;
2020/10/14 02:29:57;;;;;;;13.6;8.550001;;;;;;;3.42;100;94661.75;;;;
2020/10/14 02:30:57;;;;;;;13.6;8.550001;;;;;;;3.42;100;94661.75;;;;
2020/10/14 02:31:58;;;;;;;13.6;8.550001;;;;;;;3.42;100;94661.75;;;;
2020/10/14 02:32:58;;;;;;;13.6;8.550001;;;;;;;3.42;100;94661.75;;;;
2020/10/14 02:34:03;;;;;;;13.6;8.550001;;;;;;;3.42;100;94661.75;;;;
2020/10/14 02:35:05;;;;;;;13.6;8.550001;;;;;;;3.42;100;94661.75;;;;
2020/10/14 02:36:06;;;;;;;13.6;8.550001;;;;;;;3.42;100;94661.75;;;;
2020/10/14 02:37:07;;;;;;;13.65;9;;;;;;;3.3;100;94680.33;;;;
2020/10/14 02:38:07;;;;;;;13.65;9;;;;;;;3.3;100;94680.33;;;;
2020/10/14 02:39:15;;;;;;;13.65;9;;;;;;;3.3;100;94680.33;;;;
2020/10/14 02:40:37;;;;;;;13.65;9;;;;;;;3.3;100;94680.33;;;;
2020/10/14 02:41:42;;;;;;;13.65;9;;;;;;;3.3;100;94680.33;;;;
2020/10/14 02:42:43;;;;;;;13.65;9;;;;;;;3.3;100;94680.33;;;;
2020/10/14 02:43:44;;;;;;;13.65;9;;;;;;;3.3;100;94680.33;;;;
2020/10/14 02:44:46;;;;;;;13.65;9;;;;;;;3.3;100;94680.33;;;;
2020/10/14 02:45:49;;;;;;;13.65;9;;;;;;;3.3;100;94680.33;;;;
2020/10/14 02:46:51;;;;;;;13.65;9;;;;;;;3.3;100;94680.33;;;;
2020/10/14 02:47:51;;;;;;;16.5;9.9;;;;;;;3.31;100;94677.96;;;;
2020/10/14 02:48:52;;;;;;;16.5;9.9;;;;;;;3.31;100;94677.96;;;;
2020/10/14 02:49:53;;;;;;;16.5;9.9;;;;;;;3.31;100;94677.96;;;;
2020/10/14 02:50:53;;;;;;;16.5;9.9;;;;;;;3.31;100;94677.96;;;;
2020/10/14 02:51:54;;;;;;;16.5;9.9;;;;;;;3.31;100;94677.96;;;;
2020/10/14 02:52:54;;;;;;;16.5;9.9;;;;;;;3.31;100;94677.96;;;;
2020/10/14 02:53:56;;;;;;;16.5;9.9;;;;;;;3.31;100;94677.96;;;;
2020/10/14 02:54:56;;;;;;;16.5;9.9;;;;;;;3.31;100;94677.96;;;;
2020/10/14 02:55:57;;;;;;;16.5;9.9;;;;;;;3.31;100;94677.96;;;;
2020/10/14 02:56:57;;;;;;;16.5;9.9;;;;;;;3.31;100;94677.96;;;;
2020/10/14 02:58:17;;;;;;;18.25;10.75;;;;;;;3.58;100;94669.85;;;;
2020/10/14 02:59:17;;;;;;;18.25;10.75;;;;;;;3.58;100;94669.85;;;;
2020/10/14 03:00:25;;;;;;;18.25;10.75;;;;;;;3.58;100;94669.85;;;;
2020/10/14 03:01:59;;;;;;;18.25;10.75;;;;;;;3.58;100;94669.85;;;;
2020/10/14 03:03:49;;;;;;;18.25;10.75;;;;;;;3.58;100;94669.85;;;;
2020/10/14 03:04:49;;;;;;;18.25;10.75;;;;;;;3.58;100;94669.85;;;;
2020/10/14 03:05:51;;;;;;;18.25;10.75;;;;;;;3.58;100;94669.85;;;;
2020/10/14 03:06:53;;;;;;;18.25;10.75;;;;;;;3.58;100;94669.85;;;;
2020/10/14 03:07:55;;;;;;;18.25;10.75;;;;;;;3.58;100;94669.85;;;;
2020/10/14 03:08:59;;;;;;;18.5;10.75;;;;;;;3.79;100;94670;;;;
2020/10/14 03:10:00;;;;;;;18.5;10.75;;;;;;;3.79;100;94670;;;;
2020/10/14 03:11:00;;;;;;;18.5;10.75;;;;;;;3.79;100;94670;;;;
2020/10/14 03:12:05;;;;;;;18.5;10.75;;;;;;;3.79;100;94670;;;;
2020/10/14 03:13:05;;;;;;;18.5;10.75;;;;;;;3.79;100;94670;;;;
2020/10/14 03:14:28;;;;;;;18.5;10.75;;;;;;;3.79;100;94670;;;;
2020/10/14 03:15:28;;;;;;;18.5;10.75;;;;;;;3.79;100;94670;;;;
2020/10/14 03:16:29;;;;;;;18.5;10.75;;;;;;;3.79;100;94670;;;;
2020/10/14 03:17:37;;;;;;;18.5;10.75;;;;;;;3.79;100;94670;;;;
2020/10/14 03:18:39;;;;;;;18.5;10.75;;;;;;;3.79;100;94670;;;;
2020/10/14 03:19:41;;;;;;;12.95;9.050001;;;;;;;3.81;100;94656.86;;;;
2020/10/14 03:20:41;;;;;;;12.95;9.050001;;;;;;;3.81;100;94656.86;;;;
2020/10/14 03:21:42;;;;;;;12.95;9.050001;;;;;;;3.81;100;94656.86;;;;
2020/10/14 03:22:45;;;;;;;12.95;9.050001;;;;;;;3.81;100;94656.86;;;;
2020/10/14 03:23:47;;;;;;;12.95;9.050001;;;;;;;3.81;100;94656.86;;;;
2020/10/14 03:24:48;;;;;;;12.95;9.050001;;;;;;;3.81;100;94656.86;;;;
2020/10/14 03:25:49;;;;;;;12.95;9.050001;;;;;;;3.81;100;94656.86;;;;
2020/10/14 03:26:50;;;;;;;12.95;9.050001;;;;;;;3.81;100;94656.86;;;;
2020/10/14 03:27:50;;;;;;;12.95;9.050001;;;;;;;3.81;100;94656.86;;;;
2020/10/14 03:28:51;;;;;;;12.95;9.050001;;;;;;;3.81;100;94656.86;;;;
2020/10/14 03:29:52;;;;;;;13.15;9.1;;;;;;;3.82;100;94653.14;;;;
2020/10/14 03:30:52;;;;;;;13.15;9.1;;;;;;;3.82;100;94653.14;;;;
2020/10/14 03:31:53;;;;;;;13.15;9.1;;;;;;;3.82;100;94653.14;;;;
2020/10/14 03:32:58;;;;;;;13.15;9.1;;;;;;;3.82;100;94653.14;;;;
2020/10/14 03:34:18;;;;;;;13.15;9.1;;;;;;;3.82;100;94653.14;;;;
2020/10/14 03:35:19;;;;;;;13.15;9.1;;;;;;;3.82;100;94653.14;;;;
2020/10/14 03:36:22;;;;;;;13.15;9.1;;;;;;;3.82;100;94653.14;;;;
2020/10/14 03:37:23;;;;;;;13.15;9.1;;;;;;;3.82;100;94653.14;;;;
2020/10/14 03:38:24;;;;;;;13.15;9.1;;;;;;;3.82;100;94653.14;;;;
2020/10/14 03:39:24;;;;;;;13.15;9.1;;;;;;;3.82;100;94653.14;;;;
2020/10/14 03:40:29;;;;;;;13.15;9.1;;;;;;;3.82;100;94653.14;;;;
2020/10/14 03:41:30;;;;;;;13.75;9.4;;;;;;;3.9;100;94647.58;;;;
2020/10/14 03:42:30;;;;;;;13.75;9.4;;;;;;;3.9;100;94647.58;;;;
2020/10/14 03:43:31;;;;;;;13.75;9.4;;;;;;;3.9;100;94647.58;;;;
2020/10/14 03:44:32;;;;;;;13.75;9.4;;;;;;;3.9;100;94647.58;;;;
2020/10/14 03:45:33;;;;;;;13.75;9.4;;;;;;;3.9;100;94647.58;;;;
2020/10/14 03:46:35;;;;;;;13.75;9.4;;;;;;;3.9;100;94647.58;;;;
2020/10/14 03:47:35;;;;;;;13.75;9.4;;;;;;;3.9;100;94647.58;;;;
2020/10/14 03:48:36;;;;;;;13.75;9.4;;;;;;;3.9;100;94647.58;;;;
2020/10/14 03:49:41;;;;;;;13.75;9.4;;;;;;;3.9;100;94647.58;;;;
2020/10/14 03:50:46;;;;;;;13.75;9.4;;;;;;;3.9;100;94647.58;;;;
2020/10/14 03:51:46;;;;;;;12.9;8.599999;;;;;;;3.82;100;94642.88;;;;
2020/10/14 03:52:49;;;;;;;12.9;8.599999;;;;;;;3.82;100;94642.88;;;;
2020/10/14 03:53:56;;;;;;;12.9;8.599999;;;;;;;3.82;100;94642.88;;;;
2020/10/14 03:54:57;;;;;;;12.9;8.599999;;;;;;;3.82;100;94642.88;;;;
2020/10/14 03:55:59;;;;;;;12.9;8.599999;;;;;;;3.82;100;94642.88;;;;
2020/10/14 03:57:01;;;;;;;12.9;8.599999;;;;;;;3.82;100;94642.88;;;;
2020/10/14 03:58:04;;;;;;;12.9;8.599999;;;;;;;3.82;100;94642.88;;;;
2020/10/14 03:59:06;;;;;;;12.9;8.599999;;;;;;;3.82;100;94642.88;;;;
2020/10/14 04:00:08;;;;;;;12.9;8.599999;;;;;;;3.82;100;94642.88;;;;
2020/10/14 04:05:23;;;;;;;13.7;9.400002;;;;;;;3.77;100;94636.52;;;;
2020/10/14 04:06:23;;;;;;;13.7;9.400002;;;;;;;3.77;100;94636.52;;;;
2020/10/14 04:07:27;;;;;;;13.7;9.400002;;;;;;;3.77;100;94636.52;;;;
2020/10/14 04:08:29;;;;;;;13.7;9.400002;;;;;;;3.77;100;94636.52;;;;
2020/10/14 04:09:31;;;;;;;13.7;9.400002;;;;;;;3.77;100;94636.52;;;;
2020/10/14 04:10:49;;;;;;;13.7;9.400002;;;;;;;3.77;100;94636.52;;;;
2020/10/14 04:11:49;;;;;;;13.7;9.400002;;;;;;;3.77;100;94636.52;;;;
2020/10/14 04:12:50;;;;;;;15.35;9.85;;;;;;;3.67;100;94640.16;;;;
2020/10/14 04:13:54;;;;;;;15.35;9.85;;;;;;;3.67;100;94640.16;;;;
2020/10/14 04:14:57;;;;;;;15.35;9.85;;;;;;;3.67;100;94640.16;;;;
2020/10/14 04:16:01;;;;;;;15.35;9.85;;;;;;;3.67;100;94640.16;;;;
2020/10/14 04:17:02;;;;;;;15.35;9.85;;;;;;;3.67;100;94640.16;;;;
2020/10/14 04:18:05;;;;;;;15.35;9.85;;;;;;;3.67;100;94640.16;;;;
2020/10/14 04:19:11;;;;;;;15.35;9.85;;;;;;;3.67;100;94640.16;;;;
2020/10/14 04:20:11;;;;;;;15.35;9.85;;;;;;;3.67;100;94640.16;;;;
2020/10/14 04:21:18;;;;;;;15.35;9.85;;;;;;;3.67;100;94640.16;;;;
2020/10/14 04:22:24;;;;;;;15.35;9.85;;;;;;;3.67;100;94640.16;;;;
2020/10/14 04:23:25;;;;;;;15.8;10.45;;;;;;;3.68;100;94635.11;;;;
2020/10/14 04:24:28;;;;;;;15.8;10.45;;;;;;;3.68;100;94635.11;;;;
2020/10/14 04:25:29;;;;;;;15.8;10.45;;;;;;;3.68;100;94635.11;;;;
2020/10/14 04:26:32;;;;;;;15.8;10.45;;;;;;;3.68;100;94635.11;;;;
2020/10/14 04:27:32;;;;;;;15.8;10.45;;;;;;;3.68;100;94635.11;;;;
2020/10/14 04:28:33;;;;;;;15.8;10.45;;;;;;;3.68;100;94635.11;;;;
2020/10/14 04:29:35;;;;;;;15.8;10.45;;;;;;;3.68;100;94635.11;;;;
2020/10/14 04:30:38;;;;;;;15.8;10.45;;;;;;;3.68;100;94635.11;;;;
2020/10/14 04:31:42;;;;;;;15.8;10.45;;;;;;;3.68;100;94635.11;;;;
2020/10/14 04:32:43;;;;;;;15.8;10.45;;;;;;;3.68;100;94635.11;;;;
2020/10/14 04:33:44;;;;;;;15.8;10.45;;;;;;;3.68;100;94635.11;;;;
2020/10/14 04:34:49;;;;;;;16.35;10.4;;;;;;;3.64;100;94636.55;;;;
2020/10/14 04:35:50;;;;;;;16.35;10.4;;;;;;;3.64;100;94636.55;;;;
2020/10/14 04:36:52;;;;;;;16.35;10.4;;;;;;;3.64;100;94636.55;;;;
2020/10/14 04:37:54;;;;;;;16.35;10.4;;;;;;;3.64;100;94636.55;;;;
2020/10/14 04:38:58;;;;;;;16.35;10.4;;;;;;;3.64;100;94636.55;;;;
2020/10/14 04:40:18;;;;;;;16.35;10.4;;;;;;;3.64;100;94636.55;;;;
2020/10/14 04:41:21;;;;;;;16.35;10.4;;;;;;;3.64;100;94636.55;;;;
2020/10/14 04:42:32;;;;;;;16.35;10.4;;;;;;;3.64;100;94636.55;;;;
2020/10/14 04:43:49;;;;;;;16.35;10.4;;;;;;;3.64;100;94636.55;;;;
2020/10/14 04:45:09;;;;;;;19.3;12.2;;;;;;;3.65;100;94648.89;;;;
2020/10/14 04:46:10;;;;;;;19.3;12.2;;;;;;;3.65;100;94648.89;;;;
2020/10/14 04:47:11;;;;;;;19.3;12.2;;;;;;;3.65;100;94648.89;;;;
2020/10/14 04:48:18;;;;;;;19.3;12.2;;;;;;;3.65;100;94648.89;;;;
2020/10/14 04:49:23;;;;;;;19.3;12.2;;;;;;;3.65;100;94648.89;;;;
2020/10/14 04:50:27;;;;;;;19.3;12.2;;;;;;;3.65;100;94648.89;;;;
2020/10/14 04:51:28;;;;;;;19.3;12.2;;;;;;;3.65;100;94648.89;;;;
2020/10/14 04:52:28;;;;;;;19.3;12.2;;;;;;;3.65;100;94648.89;;;;
2020/10/14 04:53:34;;;;;;;19.3;12.2;;;;;;;3.65;100;94648.89;;;;
2020/10/14 04:54:38;;;;;;;19.3;12.2;;;;;;;3.65;100;94648.89;;;;
2020/10/14 04:55:41;;;;;;;25.9;13.4;;;;;;;3.63;100;94649.1;;;;
2020/10/14 04:56:41;;;;;;;25.9;13.4;;;;;;;3.63;100;94649.1;;;;
2020/10/14 04:57:42;;;;;;;25.9;13.4;;;;;;;3.63;100;94649.1;;;;
2020/10/14 04:58:42;;;;;;;25.9;13.4;;;;;;;3.63;100;94649.1;;;;
2020/10/14 04:59:43;;;;;;;25.9;13.4;;;;;;;3.63;100;94649.1;;;;
2020/10/14 05:00:48;;;;;;;25.9;13.4;;;;;;;3.63;100;94649.1;;;;
2020/10/14 05:01:50;;;;;;;25.9;13.4;;;;;;;3.63;100;94649.1;;;;
2020/10/14 05:02:54;;;;;;;25.9;13.4;;;;;;;3.63;100;94649.1;;;;
2020/10/14 05:03:54;;;;;;;25.9;13.4;;;;;;;3.63;100;94649.1;;;;
2020/10/14 05:05:00;;;;;;;25.9;13.4;;;;;;;3.63;100;94649.1;;;;
2020/10/14 05:06:00;;;;;;;22.25;13.7;;;;;;;3.67;100;94637.37;;;;
2020/10/14 05:07:10;;;;;;;22.25;13.7;;;;;;;3.67;100;94637.37;;;;
2020/10/14 05:08:27;;;;;;;22.25;13.7;;;;;;;3.67;100;94637.37;;;;
2020/10/14 05:09:27;;;;;;;22.25;13.7;;;;;;;3.67;100;94637.37;;;;
2020/10/14 05:10:39;;;;;;;22.25;13.7;;;;;;;3.67;100;94637.37;;;;
2020/10/14 05:11:41;;;;;;;22.25;13.7;;;;;;;3.67;100;94637.37;;;;
2020/10/14 05:12:41;;;;;;;22.25;13.7;;;;;;;3.67;100;94637.37;;;;
2020/10/14 05:13:42;;;;;;;22.25;13.7;;;;;;;3.67;100;94637.37;;;;
2020/10/14 05:14:43;;;;;;;22.25;13.7;;;;;;;3.67;100;94637.37;;;;
2020/10/14 05:15:50;;;;;;;22.25;13.7;;;;;;;3.67;100;94637.37;;;;
2020/10/14 05:16:53;;;;;;;26.05;14.7;;;;;;;3.66;100;94625.06;;;;
2020/10/14 05:17:53;;;;;;;26.05;14.7;;;;;;;3.66;100;94625.06;;;;
2020/10/14 05:19:04;;;;;;;26.05;14.7;;;;;;;3.66;100;94625.06;;;;
2020/10/14 05:20:11;;;;;;;26.05;14.7;;;;;;;3.66;100;94625.06;;;;
2020/10/14 05:21:14;;;;;;;26.05;14.7;;;;;;;3.66;100;94625.06;;;;
2020/10/14 05:22:17;;;;;;;26.05;14.7;;;;;;;3.66;100;94625.06;;;;
2020/10/14 05:23:18;;;;;;;26.05;14.7;;;;;;;3.66;100;94625.06;;;;
2020/10/14 05:24:18;;;;;;;26.05;14.7;;;;;;;3.66;100;94625.06;;;;
2020/10/14 05:25:19;;;;;;;26.05;14.7;;;;;;;3.66;100;94625.06;;;;
2020/10/14 05:26:24;;;;;;;26.05;14.7;;;;;;;3.66;100;94625.06;;;;
2020/10/14 05:27:25;;;;;;;28;15.9;;;;;;;3.8;100;94640.09;;;;
2020/10/14 05:28:25;;;;;;;28;15.9;;;;;;;3.8;100;94640.09;;;;
2020/10/14 05:29:28;;;;;;;28;15.9;;;;;;;3.8;100;94640.09;;;;
2020/10/14 05:30:29;;;;;;;28;15.9;;;;;;;3.8;100;94640.09;;;;
2020/10/14 05:31:30;;;;;;;28;15.9;;;;;;;3.8;100;94640.09;;;;
2020/10/14 05:32:31;;;;;;;28;15.9;;;;;;;3.8;100;94640.09;;;;
2020/10/14 05:33:32;;;;;;;28;15.9;;;;;;;3.8;100;94640.09;;;;
2020/10/14 05:34:35;;;;;;;28;15.9;;;;;;;3.8;100;94640.09;;;;
2020/10/14 05:35:36;;;;;;;28;15.9;;;;;;;3.8;100;94640.09;;;;
2020/10/14 05:36:38;;;;;;;28;15.9;;;;;;;3.8;100;94640.09;;;;
2020/10/14 05:37:39;;;;;;;28;15.9;;;;;;;3.8;100;94640.09;;;;
2020/10/14 05:38:41;;;;;;;27.5;14.9;;;;;;;3.84;100;94640.91;;;;
2020/10/14 05:39:41;;;;;;;27.5;14.9;;;;;;;3.84;100;94640.91;;;;
2020/10/14 05:40:44;;;;;;;27.5;14.9;;;;;;;3.84;100;94640.91;;;;
2020/10/14 05:41:53;;;;;;;27.5;14.9;;;;;;;3.84;100;94640.91;;;;
2020/10/14 05:42:54;;;;;;;27.5;14.9;;;;;;;3.84;100;94640.91;;;;
2020/10/14 05:44:00;;;;;;;27.5;14.9;;;;;;;3.84;100;94640.91;;;;
2020/10/14 05:45:00;;;;;;;27.5;14.9;;;;;;;3.84;100;94640.91;;;;
2020/10/14 05:46:01;;;;;;;27.5;14.9;;;;;;;3.84;100;94640.91;;;;
2020/10/14 05:47:04;;;;;;;27.5;14.9;;;;;;;3.84;100;94640.91;;;;
2020/10/14 05:48:04;;;;;;;27.5;14.9;;;;;;;3.84;100;94640.91;;;;
2020/10/14 05:49:07;;;;;;;30.85;16.25;;;;;;;3.92;100;94645.9;;;;
2020/10/14 05:50:08;;;;;;;30.85;16.25;;;;;;;3.92;100;94645.9;;;;
2020/10/14 05:51:14;;;;;;;30.85;16.25;;;;;;;3.92;100;94645.9;;;;
2020/10/14 05:52:16;;;;;;;30.85;16.25;;;;;;;3.92;100;94645.9;;;;
2020/10/14 05:53:16;;;;;;;30.85;16.25;;;;;;;3.92;100;94645.9;;;;
2020/10/14 05:54:17;;;;;;;30.85;16.25;;;;;;;3.92;100;94645.9;;;;
2020/10/14 05:55:19;;;;;;;30.85;16.25;;;;;;;3.92;100;94645.9;;;;
2020/10/14 05:56:22;;;;;;;30.85;16.25;;;;;;;3.92;100;94645.9;;;;
2020/10/14 05:57:25;;;;;;;30.85;16.25;;;;;;;3.92;100;94645.9;;;;
2020/10/14 05:58:27;;;;;;;30.85;16.25;;;;;;;3.92;100;94645.9;;;;
2020/10/14 05:59:30;;;;;;;31.55;16.6;;;;;;;3.98;100;94654.02;;;;
2020/10/14 06:00:31;;;;;;;31.55;16.6;;;;;;;3.98;100;94654.02;;;;
2020/10/14 06:01:39;;;;;;;31.55;16.6;;;;;;;3.98;100;94654.02;;;;
2020/10/14 06:02:41;;;;;;;31.55;16.6;;;;;;;3.98;100;94654.02;;;;
2020/10/14 06:03:42;;;;;;;31.55;16.6;;;;;;;3.98;100;94654.02;;;;
2020/10/14 06:04:44;;;;;;;31.55;16.6;;;;;;;3.98;100;94654.02;;;;
2020/10/14 06:05:56;;;;;;;31.55;16.6;;;;;;;3.98;100;94654.02;;;;
2020/10/14 06:07:02;;;;;;;31.55;16.6;;;;;;;3.98;100;94654.02;;;;
2020/10/14 06:08:11;;;;;;;31.55;16.6;;;;;;;3.98;100;94654.02;;;;
2020/10/14 06:09:19;;;;;;;31.55;16.6;;;;;;;3.98;100;94654.02;;;;
2020/10/14 06:10:27;;;;;;;31.75;15.85;;;;;;;4.13;100;94666.6;;;;
2020/10/14 06:11:31;;;;;;;31.75;15.85;;;;;;;4.13;100;94666.6;;;;
2020/10/14 06:12:33;;;;;;;31.75;15.85;;;;;;;4.13;100;94666.6;;;;
2020/10/14 06:13:40;;;;;;;31.75;15.85;;;;;;;4.13;100;94666.6;;;;